createdAt,value
2022-12-15T00:02:18.906Z,-6.04
2022-12-15T00:05:04.544Z,-5.96
2022-12-15T00:07:50.102Z,-5.95
2022-12-15T00:10:35.829Z,-5.98
2022-12-15T00:13:21.609Z,-6.01
2022-12-15T00:16:08.935Z,-6.05
2022-12-15T00:18:54.480Z,-6.12
2022-12-15T00:21:39.897Z,-6.18
2022-12-15T00:24:25.873Z,-6.23
2022-12-15T00:27:11.756Z,-6.29
2022-12-15T00:29:57.220Z,-6.35
2022-12-15T00:32:44.493Z,-6.40
2022-12-15T00:35:30.216Z,-6.45
2022-12-15T00:38:15.663Z,-6.50
2022-12-15T00:40:43.771Z,-6.57
2022-12-15T00:43:12.215Z,-6.59
2022-12-15T00:45:58.069Z,-6.68
2022-12-15T00:48:27.851Z,-6.71
2022-12-15T00:50:54.952Z,-6.75
2022-12-15T00:53:40.905Z,-6.78
2022-12-15T00:56:26.676Z,-6.83
2022-12-15T00:59:12.128Z,-6.67
2022-12-15T01:01:58.235Z,-6.25
2022-12-15T01:04:45.694Z,-6.36
2022-12-15T01:07:31.307Z,-6.54
2022-12-15T01:10:16.730Z,-6.71
2022-12-15T01:13:02.304Z,-6.89
2022-12-15T01:15:47.911Z,-7.00
2022-12-15T01:18:33.543Z,-7.10
2022-12-15T01:21:04.981Z,-7.14
2022-12-15T01:23:33.978Z,-7.21
2022-12-15T01:26:02.679Z,-7.27
2022-12-15T01:28:30.933Z,-7.27
2022-12-15T01:30:59.156Z,-7.31
2022-12-15T01:33:27.651Z,-7.34
2022-12-15T01:35:56.892Z,-7.36
2022-12-15T01:38:26.666Z,-7.39
2022-12-15T01:40:54.971Z,-7.41
2022-12-15T01:43:24.035Z,-7.43
2022-12-15T01:45:57.843Z,-7.44
2022-12-15T01:48:28.240Z,-7.49
2022-12-15T01:51:05.963Z,-7.52
2022-12-15T01:53:38.903Z,-7.55
2022-12-15T01:56:07.851Z,-7.57
2022-12-15T01:58:36.199Z,-7.55
2022-12-15T02:01:04.735Z,-7.56
2022-12-15T02:03:33.792Z,-7.58
2022-12-15T02:06:02.839Z,-7.62
2022-12-15T02:08:31.551Z,-7.68
2022-12-15T02:11:09.216Z,-7.69
2022-12-15T02:13:41.848Z,-7.68
2022-12-15T02:16:15.718Z,-7.67
2022-12-15T02:18:47.876Z,-7.72
2022-12-15T02:21:19.132Z,-7.75
2022-12-15T02:24:02.348Z,-7.75
2022-12-15T02:26:45.287Z,-7.76
2022-12-15T02:29:24.664Z,-7.78
2022-12-15T02:31:57.274Z,-7.82
2022-12-15T02:34:32.078Z,-7.79
2022-12-15T02:37:03.252Z,-7.81
2022-12-15T02:39:31.366Z,-7.80
2022-12-15T02:41:59.419Z,-7.83
2022-12-15T02:44:31.048Z,-7.87
2022-12-15T02:47:13.967Z,-7.88
2022-12-15T02:49:49.942Z,-7.89
2022-12-15T02:52:24.142Z,-7.89
2022-12-15T02:55:03.035Z,-7.92
2022-12-15T02:57:38.666Z,-7.95
2022-12-15T03:00:09.891Z,-7.93
2022-12-15T03:02:41.164Z,-7.92
2022-12-15T03:05:13.844Z,-7.92
2022-12-15T03:07:43.017Z,-7.91
2022-12-15T03:10:13.698Z,-7.89
2022-12-15T03:12:41.886Z,-7.89
2022-12-15T03:15:10.300Z,-7.94
2022-12-15T03:17:39.279Z,-7.97
2022-12-15T03:20:09.135Z,-8.03
2022-12-15T03:22:38.938Z,-8.07
2022-12-15T03:25:07.404Z,-8.07
2022-12-15T03:27:37.941Z,-8.05
2022-12-15T03:30:06.863Z,-8.05
2022-12-15T03:32:35.094Z,-8.04
2022-12-15T03:35:03.266Z,-8.02
2022-12-15T03:37:31.288Z,-8.01
2022-12-15T03:40:00.929Z,-7.98
2022-12-15T03:42:46.300Z,-7.95
2022-12-15T03:45:14.526Z,-8.00
2022-12-15T03:47:42.988Z,-8.01
2022-12-15T03:50:12.107Z,-8.01
2022-12-15T03:52:40.267Z,-8.04
2022-12-15T03:55:11.278Z,-8.04
2022-12-15T03:57:39.540Z,-8.07
2022-12-15T04:00:08.432Z,-8.07
2022-12-15T04:02:40.776Z,-8.07
2022-12-15T04:05:15.207Z,-8.08
2022-12-15T04:07:43.307Z,-8.07
2022-12-15T04:10:13.683Z,-8.07
2022-12-15T04:12:41.848Z,-8.08
2022-12-15T04:15:10.693Z,-8.11
2022-12-15T04:17:39.794Z,-8.17
2022-12-15T04:20:11.341Z,-8.24
2022-12-15T04:22:40.281Z,-8.24
2022-12-15T04:25:27.184Z,-8.24
2022-12-15T04:28:14.727Z,-8.27
2022-12-15T04:31:02.718Z,-8.29
2022-12-15T04:33:48.968Z,-8.29
2022-12-15T04:36:35.028Z,-8.29
2022-12-15T04:39:22.535Z,-8.28
2022-12-15T04:42:07.983Z,-8.28
2022-12-15T04:44:55.448Z,-8.28
2022-12-15T04:47:40.718Z,-8.31
2022-12-15T04:50:26.989Z,-8.35
2022-12-15T04:53:12.464Z,-8.38
2022-12-15T04:55:58.008Z,-8.35
2022-12-15T04:58:43.543Z,-8.37
2022-12-15T05:01:31.153Z,-8.39
2022-12-15T05:04:16.939Z,-8.39
2022-12-15T05:07:02.642Z,-8.38
2022-12-15T05:09:48.173Z,-8.39
2022-12-15T05:12:33.727Z,-8.39
2022-12-15T05:15:19.215Z,-8.40
2022-12-15T05:18:06.401Z,-8.39
2022-12-15T05:20:51.774Z,-8.38
2022-12-15T05:23:37.495Z,-8.39
2022-12-15T05:26:23.144Z,-8.41
2022-12-15T05:29:08.854Z,-8.43
2022-12-15T05:31:51.939Z,-8.47
2022-12-15T05:34:23.528Z,-8.47
2022-12-15T05:36:52.078Z,-8.43
2022-12-15T05:39:21.101Z,-8.46
2022-12-15T05:41:49.249Z,-8.44
2022-12-15T05:44:17.471Z,-8.47
2022-12-15T05:46:45.914Z,-8.53
2022-12-15T05:49:15.315Z,-8.51
2022-12-15T05:51:45.878Z,-8.52
2022-12-15T05:54:15.610Z,-8.52
2022-12-15T05:56:44.086Z,-8.48
2022-12-15T05:59:12.412Z,-8.48
2022-12-15T06:01:40.995Z,-8.48
2022-12-15T06:04:09.189Z,-8.52
2022-12-15T06:06:37.274Z,-8.52
2022-12-15T06:09:06.781Z,-8.48
2022-12-15T06:11:34.956Z,-8.52
2022-12-15T06:14:03.083Z,-8.54
2022-12-15T06:16:31.454Z,-8.52
2022-12-15T06:19:00.535Z,-8.50
2022-12-15T06:21:29.907Z,-8.51
2022-12-15T06:23:58.444Z,-8.53
2022-12-15T06:26:29.474Z,-8.53
2022-12-15T06:28:58.459Z,-8.51
2022-12-15T06:31:27.484Z,-8.49
2022-12-15T06:34:01.238Z,-8.51
2022-12-15T06:36:30.987Z,-8.52
2022-12-15T06:39:00.018Z,-8.47
2022-12-15T06:41:31.220Z,-8.44
2022-12-15T06:43:59.957Z,-8.44
2022-12-15T06:46:29.283Z,-8.44
2022-12-15T06:48:57.930Z,-8.43
2022-12-15T06:51:26.390Z,-8.44
2022-12-15T06:53:55.731Z,-8.45
2022-12-15T06:56:30.743Z,-8.46
2022-12-15T06:59:03.713Z,-8.47
2022-12-15T07:01:32.349Z,-8.47
2022-12-15T07:04:03.230Z,-8.50
2022-12-15T07:06:34.298Z,-8.48
2022-12-15T07:09:02.351Z,-8.45
2022-12-15T07:11:30.678Z,-8.48
2022-12-15T07:13:58.791Z,-8.48
2022-12-15T07:16:28.452Z,-8.52
2022-12-15T07:18:56.613Z,-8.52
2022-12-15T07:21:24.847Z,-8.53
2022-12-15T07:23:55.361Z,-8.53
2022-12-15T07:26:24.842Z,-8.51
2022-12-15T07:28:53.819Z,-8.46
2022-12-15T07:31:23.090Z,-8.46
2022-12-15T07:33:54.812Z,-8.46
2022-12-15T07:36:23.220Z,-8.46
2022-12-15T07:38:52.033Z,-8.45
2022-12-15T07:41:21.175Z,-8.46
2022-12-15T07:43:49.421Z,-8.45
2022-12-15T07:46:18.491Z,-8.49
2022-12-15T07:48:50.266Z,-8.48
2022-12-15T07:51:21.529Z,-8.49
2022-12-15T07:53:50.844Z,-8.53
2022-12-15T07:56:19.312Z,-8.51
2022-12-15T07:58:47.993Z,-8.51
2022-12-15T08:01:16.866Z,-8.55
2022-12-15T08:03:45.298Z,-8.53
2022-12-15T08:06:14.484Z,-8.53
2022-12-15T08:08:44.932Z,-8.54
2022-12-15T08:11:19.511Z,-8.57
2022-12-15T08:14:05.091Z,-8.55
2022-12-15T08:16:36.725Z,-8.52
2022-12-15T08:19:05.653Z,-8.48
2022-12-15T08:21:34.153Z,-8.44
2022-12-15T08:24:04.237Z,-8.42
2022-12-15T08:26:32.288Z,-8.39
2022-12-15T08:29:24.573Z,-8.37
2022-12-15T08:31:50.990Z,-8.38
2022-12-15T08:34:19.378Z,-8.37
2022-12-15T08:36:47.570Z,-8.43
2022-12-15T08:39:17.787Z,-8.38
2022-12-15T08:41:46.157Z,-8.33
2022-12-15T08:44:14.188Z,-8.29
2022-12-15T08:46:42.538Z,-8.25
2022-12-15T08:49:12.502Z,-8.24
2022-12-15T08:51:43.650Z,-8.20
2022-12-15T08:54:11.734Z,-8.19
2022-12-15T08:56:41.222Z,-8.21
2022-12-15T08:59:10.853Z,-8.17
2022-12-15T09:01:40.544Z,-8.14
2022-12-15T09:04:08.892Z,-8.12
2022-12-15T09:06:37.720Z,-8.07
2022-12-15T09:09:07.784Z,-8.05
2022-12-15T09:11:35.941Z,-8.03
2022-12-15T09:14:05.739Z,-8.02
2022-12-15T09:16:33.929Z,-8.02
2022-12-15T09:19:02.165Z,-7.97
2022-12-15T09:21:32.078Z,-7.92
2022-12-15T09:24:01.893Z,-7.87
2022-12-15T09:26:30.930Z,-7.81
2022-12-15T09:28:59.109Z,-7.77
2022-12-15T09:31:29.621Z,-7.71
2022-12-15T09:33:59.780Z,-7.66
2022-12-15T09:36:30.453Z,-7.63
2022-12-15T09:38:58.672Z,-7.57
2022-12-15T09:41:28.420Z,-7.52
2022-12-15T09:43:58.986Z,-7.45
2022-12-15T09:46:35.970Z,-7.39
2022-12-15T09:49:06.857Z,-7.34
2022-12-15T09:51:36.180Z,-7.27
2022-12-15T09:54:05.152Z,-7.16
2022-12-15T09:56:39.038Z,-7.07
2022-12-15T09:59:14.070Z,-6.99
2022-12-15T10:01:47.293Z,-6.92
2022-12-15T10:04:21.241Z,-6.79
2022-12-15T10:06:51.667Z,-6.64
2022-12-15T10:09:21.771Z,-6.50
2022-12-15T10:11:52.468Z,-6.36
2022-12-15T10:14:24.807Z,-6.26
2022-12-15T10:17:00.532Z,-6.16
2022-12-15T10:19:32.375Z,-6.03
2022-12-15T10:22:00.901Z,-5.81
2022-12-15T10:25:07.878Z,-5.48
2022-12-15T10:27:29.234Z,-5.17
2022-12-15T10:30:01.821Z,-4.89
2022-12-15T10:35:30.188Z,-4.21
2022-12-15T10:38:00.090Z,-4.07
2022-12-15T10:40:45.131Z,-3.88
2022-12-15T10:43:26.116Z,-3.49
2022-12-15T10:46:01.674Z,-3.00
2022-12-15T10:48:31.349Z,-2.48
2022-12-15T10:51:15.523Z,-1.97
2022-12-15T10:53:44.875Z,-1.51
2022-12-15T10:56:28.844Z,-1.03
2022-12-15T10:59:02.143Z,-0.53
2022-12-15T11:01:31.641Z,-0.16
2022-12-15T11:04:01.416Z,0.26
2022-12-15T11:06:30.888Z,0.64
2022-12-15T11:09:09.182Z,1.07
2022-12-15T11:12:04.280Z,1.42
2022-12-15T11:14:43.593Z,1.89
2022-12-15T11:17:15.448Z,2.13
2022-12-15T11:19:49.232Z,2.34
2022-12-15T11:22:22.856Z,2.64
2022-12-15T11:24:52.728Z,2.78
2022-12-15T11:27:24.872Z,3.01
2022-12-15T11:29:58.296Z,3.16
2022-12-15T11:32:27.260Z,3.30
2022-12-15T11:34:57.343Z,3.48
2022-12-15T11:37:38.518Z,3.54
2022-12-15T11:40:16.518Z,3.57
2022-12-15T11:42:49.160Z,3.67
2022-12-15T11:45:21.085Z,3.75
2022-12-15T11:47:51.177Z,3.93
2022-12-15T11:50:27.747Z,4.05
2022-12-15T11:53:02.765Z,4.11
2022-12-15T11:55:41.264Z,4.28
2022-12-15T11:58:24.969Z,4.43
2022-12-15T12:01:00.211Z,4.58
2022-12-15T12:03:34.487Z,4.56
2022-12-15T12:06:17.366Z,4.67
2022-12-15T12:09:00.569Z,4.85
2022-12-15T12:11:33.061Z,4.81
2022-12-15T12:14:11.633Z,4.96
2022-12-15T12:16:43.050Z,4.98
2022-12-15T12:19:12.574Z,4.95
2022-12-15T12:21:42.732Z,5.04
2022-12-15T12:24:14.958Z,4.97
2022-12-15T12:26:48.785Z,4.98
2022-12-15T12:29:35.998Z,4.90
2022-12-15T12:32:05.971Z,4.61
2022-12-15T12:34:39.072Z,4.22
2022-12-15T12:37:15.172Z,4.17
2022-12-15T12:39:44.304Z,3.90
2022-12-15T12:42:17.895Z,3.84
2022-12-15T12:44:46.134Z,3.49
2022-12-15T12:47:20.350Z,3.44
2022-12-15T12:49:50.928Z,3.27
2022-12-15T12:52:23.072Z,3.14
2022-12-15T12:54:57.599Z,3.06
2022-12-15T12:57:34.914Z,2.87
2022-12-15T13:00:04.279Z,2.82
2022-12-15T13:02:45.254Z,2.70
2022-12-15T13:05:24.660Z,2.59
2022-12-15T13:07:55.334Z,2.42
2022-12-15T13:10:24.801Z,2.30
2022-12-15T13:12:55.567Z,2.15
2022-12-15T13:15:37.460Z,2.10
2022-12-15T13:18:09.708Z,2.01
2022-12-15T13:20:38.569Z,1.88
2022-12-15T13:23:34.404Z,1.77
2022-12-15T13:26:16.017Z,1.71
2022-12-15T13:28:52.254Z,1.54
2022-12-15T13:31:27.786Z,1.49
2022-12-15T13:34:14.235Z,1.44
2022-12-15T13:36:52.507Z,1.37
2022-12-15T13:39:56.687Z,1.37
2022-12-15T13:42:35.049Z,1.34
2022-12-15T13:45:34.440Z,1.30
2022-12-15T13:48:07.169Z,1.25
2022-12-15T13:50:40.708Z,1.22
2022-12-15T13:53:19.672Z,1.16
2022-12-15T13:55:58.365Z,1.12
2022-12-15T13:58:27.909Z,1.03
2022-12-15T14:00:58.107Z,0.98
2022-12-15T14:03:29.052Z,0.91
2022-12-15T14:05:58.808Z,0.82
2022-12-15T14:08:28.300Z,0.79
2022-12-15T14:10:57.436Z,0.80
2022-12-15T14:13:26.824Z,0.71
2022-12-15T14:15:56.142Z,0.66
2022-12-15T14:18:26.788Z,0.62
2022-12-15T14:20:56.456Z,0.57
2022-12-15T14:23:25.726Z,0.57
2022-12-15T14:25:54.746Z,0.54
2022-12-15T14:28:25.642Z,0.57
2022-12-15T14:30:54.485Z,0.51
2022-12-15T14:33:27.965Z,0.52
2022-12-15T14:36:00.303Z,0.51
2022-12-15T14:38:31.916Z,0.46
2022-12-15T14:41:02.481Z,0.47
2022-12-15T14:43:33.517Z,0.42
2022-12-15T14:46:07.769Z,0.36
2022-12-15T14:48:42.131Z,0.41
2022-12-15T14:51:14.461Z,0.36
2022-12-15T14:53:44.714Z,0.31
2022-12-15T14:56:27.804Z,0.29
2022-12-15T14:59:03.951Z,0.26
2022-12-15T15:01:36.286Z,0.20
2022-12-15T15:03:04.487Z,-4.53
2022-12-15T15:04:06.340Z,0.17
2022-12-15T15:06:40.187Z,0.13
2022-12-15T15:09:20.079Z,0.14
2022-12-15T15:11:49.492Z,0.11
2022-12-15T15:14:19.625Z,0.10
2022-12-15T15:16:59.687Z,0.07
2022-12-15T15:19:27.937Z,0.04
2022-12-15T15:21:57.596Z,0.01
2022-12-15T15:24:26.716Z,-0.03
2022-12-15T15:26:55.108Z,-0.08
2022-12-15T15:29:39.372Z,-0.11
2022-12-15T15:32:08.857Z,-0.20
2022-12-15T15:34:37.213Z,-0.23
2022-12-15T15:37:14.959Z,-0.29
2022-12-15T15:39:46.050Z,-0.33
2022-12-15T15:42:14.502Z,-0.39
2022-12-15T15:44:42.770Z,-0.41
2022-12-15T15:47:18.270Z,-0.49
2022-12-15T15:49:47.166Z,-0.62
2022-12-15T15:52:16.795Z,-0.70
2022-12-15T15:54:45.699Z,-0.80
2022-12-15T15:57:15.435Z,-0.90
2022-12-15T15:59:44.317Z,-0.99
2022-12-15T16:02:13.883Z,-1.07
2022-12-15T16:04:43.106Z,-1.20
2022-12-15T16:07:18.392Z,-1.31
2022-12-15T16:09:46.803Z,-1.41
2022-12-15T16:12:23.083Z,-1.50
2022-12-15T16:14:51.192Z,-1.60
2022-12-15T16:17:20.037Z,-1.67
2022-12-15T16:19:48.940Z,-1.77
2022-12-15T16:22:20.527Z,-1.87
2022-12-15T16:24:48.848Z,-2.00
2022-12-15T16:27:17.635Z,-2.14
2022-12-15T16:29:45.795Z,-2.39
2022-12-15T16:32:13.922Z,-2.51
2022-12-15T16:34:42.795Z,-2.58
2022-12-15T16:37:18.682Z,-2.65
2022-12-15T16:39:48.312Z,-2.77
2022-12-15T16:42:16.454Z,-2.85
2022-12-15T16:44:44.787Z,-2.96
2022-12-15T16:47:13.087Z,-3.02
2022-12-15T16:49:41.732Z,-3.05
2022-12-15T16:52:13.288Z,-3.09
2022-12-15T16:54:42.014Z,-3.12
2022-12-15T16:57:12.937Z,-3.19
2022-12-15T16:59:41.262Z,-3.27
2022-12-15T17:02:21.121Z,-3.42
2022-12-15T17:04:50.355Z,-3.55
2022-12-15T17:07:20.626Z,-3.67
2022-12-15T17:09:49.733Z,-3.71
2022-12-15T17:12:20.026Z,-3.81
2022-12-15T17:14:48.539Z,-3.87
2022-12-15T17:17:17.733Z,-3.91
2022-12-15T17:20:11.715Z,-4.05
2022-12-15T17:22:35.275Z,-4.06
2022-12-15T17:25:03.749Z,-4.07
2022-12-15T17:27:33.366Z,-4.07
2022-12-15T17:30:01.887Z,-4.07
2022-12-15T17:32:30.050Z,-4.08
2022-12-15T17:34:58.315Z,-4.10
2022-12-15T17:37:31.894Z,-4.17
2022-12-15T17:40:03.835Z,-4.24
2022-12-15T17:42:33.396Z,-4.27
2022-12-15T17:45:01.916Z,-4.34
2022-12-15T17:47:30.702Z,-4.42
2022-12-15T17:49:58.780Z,-4.53
2022-12-15T17:52:28.595Z,-4.54
2022-12-15T17:54:57.201Z,-4.58
2022-12-15T17:57:25.654Z,-4.63
2022-12-15T17:59:55.759Z,-4.70
2022-12-15T18:02:24.396Z,-4.76
2022-12-15T18:04:53.493Z,-4.73
2022-12-15T18:07:22.700Z,-4.79
2022-12-15T18:09:51.600Z,-4.82
2022-12-15T18:12:21.341Z,-4.94
2022-12-15T18:14:49.696Z,-4.99
2022-12-15T18:17:19.515Z,-5.00
2022-12-15T18:19:47.653Z,-5.01
2022-12-15T18:22:18.363Z,-5.01
2022-12-15T18:24:46.584Z,-4.98
2022-12-15T18:27:20.996Z,-5.03
2022-12-15T18:29:49.457Z,-5.07
2022-12-15T18:32:19.868Z,-5.11
2022-12-15T18:34:48.047Z,-5.12
2022-12-15T18:37:17.600Z,-5.18
2022-12-15T18:39:46.348Z,-5.19
2022-12-15T18:42:15.527Z,-5.25
2022-12-15T18:44:46.748Z,-5.27
2022-12-15T18:47:16.702Z,-5.33
2022-12-15T18:49:48.855Z,-5.34
2022-12-15T18:52:18.810Z,-5.30
2022-12-15T18:54:47.948Z,-5.35
2022-12-15T18:57:26.267Z,-5.44
2022-12-15T18:59:54.879Z,-5.45
2022-12-15T19:02:23.020Z,-5.48
2022-12-15T19:04:52.679Z,-5.49
2022-12-15T19:07:21.218Z,-5.44
2022-12-15T19:09:50.086Z,-5.43
2022-12-15T19:12:20.985Z,-5.38
2022-12-15T19:14:50.777Z,-5.35
2022-12-15T19:17:37.417Z,-5.36
2022-12-15T19:20:25.644Z,-5.39
2022-12-15T19:22:54.096Z,-5.44
2022-12-15T19:25:26.158Z,-5.44
2022-12-15T19:27:59.357Z,-5.42
2022-12-15T19:30:28.869Z,-5.42
2022-12-15T19:32:57.115Z,-5.41
2022-12-15T19:35:27.415Z,-5.42
2022-12-15T19:37:56.836Z,-5.45
2022-12-15T19:40:27.608Z,-5.49
2022-12-15T19:42:56.144Z,-5.52
2022-12-15T19:45:25.786Z,-5.54
2022-12-15T19:47:54.181Z,-5.59
2022-12-15T19:50:23.906Z,-5.61
2022-12-15T19:52:56.060Z,-5.61
2022-12-15T19:55:26.766Z,-5.61
2022-12-15T19:57:55.041Z,-5.65
2022-12-15T20:00:24.897Z,-5.66
2022-12-15T20:02:54.942Z,-5.65
2022-12-15T20:05:23.647Z,-5.66
2022-12-15T20:07:55.230Z,-5.71
2022-12-15T20:10:29.496Z,-5.73
2022-12-15T20:13:00.933Z,-5.76
2022-12-15T20:15:29.130Z,-5.79
2022-12-15T20:17:57.855Z,-5.84
2022-12-15T20:20:27.201Z,-5.89
2022-12-15T20:22:57.952Z,-5.90
2022-12-15T20:25:27.364Z,-5.93
2022-12-15T20:27:55.857Z,-5.95
2022-12-15T20:30:25.287Z,-5.99
2022-12-15T20:32:54.201Z,-6.09
2022-12-15T20:35:23.091Z,-6.13
2022-12-15T20:37:52.619Z,-6.14
2022-12-15T20:40:23.426Z,-6.16
2022-12-15T20:42:52.825Z,-6.18
2022-12-15T20:45:22.104Z,-6.20
2022-12-15T20:47:51.229Z,-6.25
2022-12-15T20:50:24.799Z,-6.26
2022-12-15T20:52:53.174Z,-6.33
2022-12-15T20:55:24.715Z,-6.34
2022-12-15T20:57:53.110Z,-6.34
2022-12-15T21:00:21.968Z,-6.35
2022-12-15T21:02:51.823Z,-6.39
2022-12-15T21:05:21.547Z,-6.41
2022-12-15T21:07:50.205Z,-6.43
2022-12-15T21:10:22.667Z,-6.44
2022-12-15T21:12:52.863Z,-6.44
2022-12-15T21:15:22.290Z,-6.45
2022-12-15T21:18:10.956Z,-6.48
2022-12-15T21:20:41.358Z,-6.54
2022-12-15T21:23:17.906Z,-6.54
2022-12-15T21:25:46.028Z,-6.55
2022-12-15T21:28:15.674Z,-6.57
2022-12-15T21:30:44.222Z,-6.60
2022-12-15T21:33:12.526Z,-6.58
2022-12-15T21:35:41.181Z,-6.60
2022-12-15T21:38:18.617Z,-6.61
2022-12-15T21:40:46.791Z,-6.62
2022-12-15T21:43:16.463Z,-6.62
2022-12-15T21:45:44.648Z,-6.64
2022-12-15T21:48:30.525Z,-6.62
2022-12-15T21:50:59.064Z,-6.59
2022-12-15T21:53:27.724Z,-6.58
2022-12-15T21:55:57.691Z,-6.56
2022-12-15T21:58:28.119Z,-6.52
2022-12-15T22:00:56.323Z,-6.49
2022-12-15T22:03:24.757Z,-6.43
2022-12-15T22:05:52.913Z,-6.39
2022-12-15T22:08:22.111Z,-6.31
2022-12-15T22:10:51.967Z,-6.24
2022-12-15T22:13:20.882Z,-6.15
2022-12-15T22:15:51.651Z,-6.05
2022-12-15T22:18:22.412Z,-5.93
2022-12-15T22:20:52.468Z,-5.77
2022-12-15T22:23:21.462Z,-5.66
2022-12-15T22:25:51.846Z,-5.56
2022-12-15T22:28:21.795Z,-5.44
2022-12-15T22:30:51.851Z,-5.31
2022-12-15T22:33:23.945Z,-5.22
2022-12-15T22:35:52.765Z,-5.12
2022-12-15T22:38:24.040Z,-5.00
2022-12-15T22:40:55.434Z,-4.92
2022-12-15T22:43:26.949Z,-4.83
2022-12-15T22:45:57.294Z,-4.76
2022-12-15T22:48:29.995Z,-4.67
2022-12-15T22:50:58.445Z,-4.59
2022-12-15T22:53:28.079Z,-4.54
2022-12-15T22:55:56.473Z,-4.46
2022-12-15T22:58:26.807Z,-4.41
2022-12-15T23:00:58.871Z,-4.38
2022-12-15T23:03:28.810Z,-4.32
2022-12-15T23:05:58.700Z,-4.28
2022-12-15T23:08:27.025Z,-4.24
2022-12-15T23:11:12.691Z,-4.21
2022-12-15T23:13:41.238Z,-4.17
2022-12-15T23:16:27.771Z,-4.13
2022-12-15T23:18:56.454Z,-4.11
2022-12-15T23:21:25.460Z,-4.06
2022-12-15T23:23:53.610Z,-4.04
2022-12-15T23:26:24.052Z,-4.01
2022-12-15T23:28:52.156Z,-3.97
2022-12-15T23:31:22.106Z,-3.96
2022-12-15T23:33:52.184Z,-3.95
2022-12-15T23:36:20.385Z,-3.92
2022-12-15T23:38:48.456Z,-3.91
2022-12-15T23:41:17.903Z,-3.92
2022-12-15T23:43:45.993Z,-3.92
2022-12-15T23:46:14.457Z,-3.89
2022-12-15T23:48:46.864Z,-3.90
2022-12-15T23:51:16.386Z,-3.88
2022-12-15T23:53:45.202Z,-3.86
2022-12-15T23:56:14.332Z,-3.92
2022-12-15T23:58:43.744Z,-3.88
